Station: Jervois  

  Atmospheric Gas Attenuation - ITU Rec 676-11   ----------------- dB/100km -----------------
Date Time Temp RH % AH g/m3 Dew Point Wind Direction Speed kph Gust kph Barometer mB Rainfall Since 9am 24GHz 47GHz 76GHz 122GHz 134GHz 241GHz
31/08 21:30 17.1 49 7.13 6.3 7 9 1023.3 0 16.3 23.1 33.1 86.5 76.9 263.6
31/08 21:20 17.5 47 7.01 6.1 9 11 1023.3 0 16.0 22.8 32.5 84.9 75.1 257.2
31/08 21:10 17.5 47 7.01 6.1 9 11 1023.3 0 16.0 22.8 32.5 84.9 75.1 257.2
31/08 21:00 17.4 48 7.11 6.3 7 11 1023.2 0 16.3 23.0 32.9 85.9 76.4 261.7
31/08 20:50 18 44 6.76 5.6 7 9 1023.2 0 15.5 22.3 31.4 81.9 71.7 245.3
31/08 20:40 18.1 43 6.64 5.3 7 9 1023.1 0 15.2 22.1 30.9 80.7 70.2 240.0
31/08 20:30 19.2 40 6.6 5.3 7 9 1022.9 0 15.1 21.8 30.4 79.2 68.8 235.2
31/08 20:20 19.8 37 6.32 4.7 9 11 1022.9 0 14.5 21.3 29.2 76.1 65.1 222.3
31/08 20:10 20.4 36 6.37 4.8 9 11 1022.8 0 14.6 21.2 29.2 76.0 65.2 222.6
31/08 20:00 20.8 35 6.34 4.8 9 13 1022.6 0 14.5 21.1 28.9 75.3 64.5 220.4
31/08 19:50 21 34 6.23 4.6 9 13 1022.5 0 14.3 20.9 28.5 74.1 63.1 215.5
31/08 19:40 21 35 6.41 5 9 13 1022.5 0 14.7 21.1 29.1 75.8 65.1 222.5
31/08 19:30 21.2 34 6.3 4.7 9 11 1022.2 0 14.4 20.9 28.6 74.6 63.7 217.7
31/08 19:20 21.5 34 6.41 5 7 9 1022.1 0 14.6 21.0 28.9 75.3 64.7 221.1
31/08 19:10 21.9 33 6.37 4.9 9 11 1022.1 0 14.5 20.8 28.6 74.6 63.9 218.5
31/08 19:00 22.3 32 6.32 4.8 9 11 1022 0 14.4 20.7 28.3 73.7 63.1 215.5
31/08 18:50 22.6 31 6.23 4.6 9 11 1021.9 0 14.2 20.5 27.9 72.7 61.9 211.3
31/08 18:40 22.9 31 6.33 4.9 9 11 1021.8 0 14.4 20.6 28.1 73.3 62.7 214.3
31/08 18:30 23.4 30 6.31 4.9 7 11 1021.7 0 14.4 20.4 27.9 72.7 62.1 212.2
31/08 18:20 24.1 30 6.56 5.5 7 9 1021.6 0 14.9 20.6 28.5 74.2 64.2 219.8
31/08 18:10 24.7 28 6.34 5 7 9 1021.5 0 14.4 20.2 27.6 71.8 61.4 210.0
31/08 18:00 25.5 26 6.16 4.6 7 11 1021.3 0 14.0 19.8 26.7 69.6 59.0 201.4
31/08 17:50 26.3 24 5.94 4.1 9 15 1021.4 0 13.5 19.3 25.8 67.1 56.1 191.6
31/08 17:40 26.8 23 5.85 4 11 15 1021.4 0 13.3 19.1 25.4 65.9 54.9 187.3
31/08 17:30 27.1 23 5.95 4.2 13 20 1021.2 0 13.5 19.2 25.6 66.5 55.7 190.1
31/08 17:20 27.5 23 6.09 4.5 9 15 1021.3 0 13.8 19.3 25.9 67.4 56.8 194.2
31/08 17:10 27.6 21 5.59 3.3 11 15 1021.2 0 12.7 18.6 24.3 63.2 51.8 176.4
31/08 17:00 27.8 22 5.92 4.2 9 15 1021.1 0 13.4 19.0 25.3 65.7 54.9 187.5
31/08 16:50 28.1 21 5.74 3.7 7 13 1021.1 0 13.0 18.7 24.6 64.0 52.9 180.5
31/08 16:40 28.6 20 5.62 3.5 6 11 1021.1 0 12.8 18.5 24.1 62.7 51.4 175.3
31/08 16:30 28.3 20 5.53 3.2 6 11 1021 0 12.6 18.4 24.0 62.2 50.7 172.8
31/08 16:20 28.3 21 5.81 3.9 13 19 1021.1 0 13.2 18.8 24.8 64.4 53.5 182.5
31/08 16:10 28.6 21 5.9 4.2 9 19 1021 0 13.3 18.8 25.0 64.9 54.2 185.0
31/08 16:00 28.4 20 5.56 3.3 7 11 1021 0 12.6 18.4 24.0 62.4 51.0 173.6
31/08 15:50 28.6 20 5.62 3.5 9 15 1021.1 0 12.8 18.5 24.1 62.7 51.4 175.3
31/08 15:40 28.9 20 5.71 3.7 11 20 1021.2 0 12.9 18.5 24.3 63.2 52.1 177.8
31/08 15:30 29.1 20 5.78 3.9 9 26 1021.2 0 13.1 18.6 24.5 63.6 52.7 179.8
31/08 15:20 29.1 20 5.78 3.9 6 13 1021.4 0 13.1 18.6 24.5 63.6 52.7 179.8
31/08 15:10 28.8 19 5.4 2.9 9 15 1021.5 0 12.3 18.2 23.4 60.9 49.2 167.4
31/08 15:00 28.6 20 5.62 3.5 13 20 1021.6 0 12.8 18.5 24.2 62.7 51.5 175.4
31/08 14:50 28.8 20 5.68 3.6 11 20 1021.7 0 12.9 18.5 24.3 63.1 51.9 177.1
31/08 14:40 28.5 20 5.59 3.4 17 22 1021.8 0 12.7 18.5 24.1 62.6 51.2 174.6
31/08 14:30 28.7 20 5.65 3.5 7 13 1021.9 0 12.8 18.5 24.2 62.9 51.7 176.3
31/08 14:20 29.3 19 5.55 3.3 6 11 1022 0 12.6 18.3 23.8 61.7 50.4 171.6
31/08 14:10 28.8 20 5.68 3.6 7 13 1022.1 0 12.9 18.5 24.3 63.1 52.0 177.1
31/08 14:00 28.2 20 5.5 3.1 7 19 1022.3 0 12.5 18.4 23.9 62.1 50.6 172.2
31/08 13:50 28 21 5.71 3.7 13 20 1022.6 0 13.0 18.7 24.6 64.0 52.8 179.9
31/08 13:40 28.3 21 5.81 3.9 9 17 1022.7 0 13.2 18.8 24.8 64.6 53.6 182.8
31/08 13:30 28 20 5.44 3 13 19 1022.7 0 12.4 18.4 23.8 61.8 50.1 170.6
31/08 13:20 28.2 21 5.77 3.8 9 19 1022.9 0 13.1 18.8 24.8 64.3 53.3 181.6
31/08 13:10 27.8 21 5.65 3.5 13 20 1023.2 0 12.8 18.7 24.5 63.7 52.3 178.3
31/08 13:00 27.5 21 5.56 3.2 11 20 1023.2 0 12.7 18.7 24.3 63.2 51.6 175.8
31/08 12:50 27.9 21 5.68 3.6 17 24 1023.6 0 12.9 18.8 24.6 63.9 52.6 179.2
31/08 12:40 27.7 21 5.62 3.4 15 28 1023.7 0 12.8 18.7 24.5 63.6 52.1 177.6
31/08 12:30 27.6 21 5.59 3.3 13 20 1023.9 0 12.7 18.7 24.4 63.4 51.9 176.8
31/08 12:20 27.1 21 5.43 2.9 13 24 1024.3 0 12.4 18.6 24.1 62.5 50.6 172.3
31/08 12:10 27.3 21 5.5 3.1 11 19 1024.4 0 12.6 18.7 24.3 62.9 51.2 174.3
31/08 12:00 26.6 21 5.29 2.5 17 28 1024.6 0 12.1 18.6 23.8 61.8 49.6 168.4
31/08 11:50 27 21 5.4 2.8 13 20 1024.8 0 12.4 18.6 24.1 62.4 50.4 171.5
31/08 11:40 26.6 22 5.54 3.2 15 24 1025.1 0 12.7 18.9 24.6 63.8 52.1 177.3
31/08 11:30 26.2 22 5.42 2.8 13 24 1025.2 0 12.4 18.8 24.4 63.2 51.1 173.9
31/08 11:20 25.9 22 5.33 2.6 15 24 1025.5 0 12.3 18.8 24.2 62.7 50.4 171.4
31/08 11:10 26 23 5.6 3.3 15 30 1025.7 0 12.8 19.1 25.0 64.8 53.1 180.8
31/08 11:00 25.5 24 5.68 3.5 13 22 1025.7 0 13.0 19.3 25.4 65.9 54.2 184.7
31/08 10:50 25.4 24 5.65 3.4 17 26 1025.9 0 12.9 19.3 25.3 65.7 54.0 183.9
31/08 10:40 25.4 24 5.65 3.4 15 22 1026 0 12.9 19.3 25.3 65.7 54.0 183.9
31/08 10:30 25.4 25 5.89 4 13 20 1026 0 13.4 19.6 26.1 67.7 56.5 192.6
31/08 10:20 24.9 26 5.95 4.1 15 19 1026.2 0 13.6 19.8 26.4 68.7 57.4 196.0
31/08 10:10 24.1 26 5.69 3.4 13 22 1026.4 0 13.1 19.6 25.8 67.1 55.3 188.3
31/08 10:00 23.8 27 5.81 3.7 13 20 1026.3 0 13.3 19.8 26.3 68.4 56.7 193.4
31/08 09:50 23.1 28 5.79 3.6 15 20 1026.4 0 13.3 19.9 26.5 68.8 57.0 194.3
31/08 09:40 22.9 29 5.93 3.9 13 19 1026.4 0 13.6 20.2 27.0 70.2 58.7 200.0
31/08 09:30 22 30 5.82 3.6 15 19 1026.3 0 13.4 20.2 26.9 70.0 58.1 198.0
31/08 09:20 21.8 31 5.95 3.9 15 19 1026.4 0 13.7 20.4 27.4 71.3 59.7 203.4
31/08 09:10 20.8 32 5.79 3.5 13 22 1026.3 0 13.4 20.4 27.2 70.7 58.6 199.7
31/08 09:00 20.8 33 5.97 4 13 19 1026.1 0 13.7 20.7 27.8 72.3 60.6 206.6
31/08 08:50 19.8 35 5.98 3.9 11 15 1026.2 0 13.8 20.9 28.2 73.3 61.5 209.5
31/08 08:40 18.9 37 5.99 3.9 11 15 1026.3 0 13.9 21.1 28.5 74.2 62.3 212.3
31/08 08:30 18.5 38 6.01 3.9 11 15 1026.2 0 13.9 21.2 28.7 74.7 62.8 214.1
31/08 08:20 17.4 41 6.08 4 9 13 1026.3 0 14.1 21.6 29.3 76.4 64.5 219.8
31/08 08:10 16.5 44 6.18 4.2 7 11 1026.2 0 14.3 22.0 30.0 78.2 66.4 226.3
31/08 08:00 15.7 50 6.69 5.3 7 13 1026.1 0 15.4 22.9 32.2 83.9 73.1 250.0
31/08 07:50 13.9 56 6.71 5.3 6 9 1026.2 0 15.6 23.4 33.0 86.0 75.1 256.5
31/08 07:40 12.9 60 6.76 5.3 6 7 1026.1 0 15.7 23.7 33.6 87.6 76.6 261.9
31/08 07:30 11.9 65 6.88 5.5 6 7 1025.9 0 16.0 24.2 34.4 89.9 79.1 270.6
31/08 07:20 10.3 74 7.09 5.9 6 7 1025.9 0 16.5 24.9 36.0 94.0 83.5 285.8
31/08 07:10 9.4 75 6.79 5.2 6 7 1025.8 0 15.9 24.7 35.2 91.8 80.5 275.0
31/08 07:00 9.2 74 6.61 4.8 6 7 1025.8 0 15.5 24.4 34.5 90.1 78.3 267.4
31/08 06:50 8.7 74 6.4 4.3 6 7 1025.8 0 15.1 24.2 33.9 88.4 76.1 259.4
31/08 06:40 8.9 72 6.31 4.1 7 9 1025.7 0 14.9 24.0 33.5 87.3 74.7 254.6
31/08 06:30 9 72 6.35 4.2 7 9 1025.5 0 15.0 24.1 33.6 87.6 75.1 256.1
31/08 06:20 9 72 6.35 4.2 7 9 1025.6 0 15.0 24.1 33.6 87.6 75.1 256.1
31/08 06:10 9.2 70 6.25 4 7 9 1025.5 0 14.8 23.9 33.1 86.3 73.6 250.9
31/08 06:00 9.5 69 6.28 4.1 6 7 1025.3 0 14.8 23.8 33.1 86.3 73.7 251.2
31/08 05:50 9.6 68 6.23 4 7 9 1025.3 0 14.7 23.7 32.8 85.6 73.0 248.7
31/08 05:40 10.2 65 6.19 3.9 7 9 1025.2 0 14.6 23.5 32.4 84.6 71.9 245.0
31/08 05:30 10.2 65 6.19 3.9 7 11 1025 0 14.6 23.5 32.4 84.5 71.9 244.9
31/08 05:20 9.8 66 6.13 3.8 7 9 1025 0 14.5 23.5 32.4 84.3 71.5 243.5
31/08 05:10 9.9 66 6.16 3.9 7 11 1025 0 14.5 23.5 32.4 84.5 71.8 244.5
31/08 05:00 10.3 64 6.13 3.8 7 9 1024.8 0 14.5 23.4 32.1 83.8 71.0 241.9

Last Refresh: 31-Aug-2026 21:41:39

Bureau of Meteorology